Time;durP1;ratioP1;P1;durP2;ratioP2;P2;SDS_P1;SDS_P2;PMS_P1;PMS_P2;Temp;Humidity;BMP_temperature;BMP_pressure;BME280_temperature;BME280_humidity;BME280_pressure;Samples;Min_cycle;Max_cycle;Signal;HPM_P1;HPM_P2
2022/12/02 00:00:42;;;;;;;;;27.00;26.00;;;;;6.06;54.79;99645.72;6268070;27;96917;-66
2022/12/02 00:03:46;;;;;;;;;34.50;30.00;;;;;6.11;54.63;99639.81;6263738;27;96774;-66
2022/12/02 00:06:50;;;;;;;;;25.00;23.50;;;;;6.19;54.59;99633.63;6269389;27;96912;-66
2022/12/02 00:09:55;;;;;;;;;25.40;23.40;;;;;6.22;54.28;99635.94;6263621;27;96315;-66
2022/12/02 00:13:10;;;;;;;;;31.40;30.00;;;;;5.98;54.14;99620.81;6265872;27;96352;-65
2022/12/02 00:16:20;;;;;;;;;28.40;26.40;;;;;6.02;54.45;99638.19;6286325;27;96400;-66
2022/12/02 00:19:24;;;;;;;;;32.50;29.75;;;;;5.93;54.32;99637.41;6287440;27;96810;-66
2022/12/02 00:22:27;;;;;;;;;32.00;30.00;;;;;5.93;54.47;99624.03;6287912;27;96506;-65
2022/12/02 00:25:32;;;;;;;;;25.20;21.40;;;;;5.98;54.57;99629.69;6287893;27;96380;-65
2022/12/02 00:28:36;;;;;;;;;32.50;30.00;;;;;6.01;54.63;99623.97;6286593;27;96501;-66
2022/12/02 00:31:39;;;;;;;;;32.00;28.40;;;;;6.09;54.67;99628.47;6287494;27;98380;-66
2022/12/02 00:34:43;;;;;;;;;31.60;30.20;;;;;6.15;54.29;99625.09;6265556;27;96338;-66
2022/12/02 00:37:46;;;;;;;;;20.60;19.40;;;;;6.20;54.05;99630.78;6275593;27;96822;-65
2022/12/02 00:40:51;;;;;;;;;37.20;32.40;;;;;6.08;53.92;99619.59;6271578;27;98507;-66
2022/12/02 00:47:15;;;;;;;;;31.20;29.80;;;;;6.09;54.27;99626.63;6288102;27;96216;-65
2022/12/02 00:50:18;;;;;;;;;32.60;29.20;;;;;6.07;54.24;99619.78;6289535;27;96657;-66
2022/12/02 00:53:22;;;;;;;;;29.60;27.60;;;;;6.07;54.22;99630.47;6287877;27;96383;-66
2022/12/02 00:56:27;;;;;;;;;31.00;27.00;;;;;6.07;54.21;99623.28;6289518;27;96368;-66
2022/12/02 00:59:30;;;;;;;;;30.00;28.50;;;;;6.10;54.18;99619.44;6295946;27;97456;-66
2022/12/02 01:02:33;;;;;;;;;38.60;33.00;;;;;6.17;54.04;99619.56;6263929;27;96050;-66
2022/12/02 01:05:37;;;;;;;;;33.00;30.40;;;;;6.16;53.86;99618.72;6288592;27;96637;-65
2022/12/02 01:08:40;;;;;;;;;31.60;27.60;;;;;6.12;54.23;99621.94;6281265;27;97965;-66
2022/12/02 01:11:45;;;;;;;;;31.60;29.60;;;;;6.07;54.27;99617.94;6287780;27;96446;-65
2022/12/02 01:14:49;;;;;;;;;32.40;28.20;;;;;6.09;54.34;99617.78;6287016;27;98422;-66
2022/12/02 01:17:52;;;;;;;;;25.75;22.00;;;;;6.05;54.43;99603.91;6288296;27;97928;-66
2022/12/02 01:20:56;;;;;;;;;32.00;30.00;;;;;6.12;54.59;99608.53;6286708;27;96778;-67
2022/12/02 01:23:59;;;;;;;;;34.00;30.00;;;;;6.15;54.32;99608.22;6288466;27;96852;-67
2022/12/02 01:27:04;;;;;;;;;27.25;26.25;;;;;6.19;54.30;99606.84;6269812;27;98871;-66
2022/12/02 01:30:08;;;;;;;;;36.50;31.00;;;;;6.13;54.18;99599.50;6304681;27;96222;-66
2022/12/02 01:33:12;;;;;;;;;30.60;28.20;;;;;5.98;54.34;99591.38;6288093;27;96501;-67
2022/12/02 01:36:15;;;;;;;;;27.60;25.20;;;;;6.01;54.54;99599.88;6287229;27;96468;-66
2022/12/02 01:39:18;;;;;;;;;25.20;22.00;;;;;5.97;54.81;99597.75;6286265;27;96244;-67
2022/12/02 01:42:23;;;;;;;;;32.60;28.60;;;;;5.97;54.90;99600.41;6288163;27;96164;-66
2022/12/02 01:45:27;;;;;;;;;36.50;33.00;;;;;6.04;54.88;99593.38;6285263;27;99109;-66
2022/12/02 01:48:32;;;;;;;;;33.00;29.75;;;;;5.94;54.76;99600.78;6269019;27;96444;-66
2022/12/02 01:51:35;;;;;;;;;33.00;31.00;;;;;5.98;54.53;99597.56;6287333;27;96368;-65
2022/12/02 01:54:39;;;;;;;;;37.40;33.00;;;;;6.06;54.52;99599.38;6288743;27;96453;-65
2022/12/02 01:57:44;;;;;;;;;39.00;33.00;;;;;6.17;54.27;99601.66;6287560;27;96405;-65
2022/12/02 02:00:47;;;;;;;;;36.00;30.00;;;;;5.98;53.97;99588.72;6286950;27;96971;-65
2022/12/02 02:03:51;;;;;;;;;33.80;30.00;;;;;5.75;53.77;99588.63;6305600;27;96801;-66
2022/12/02 02:06:54;;;;;;;;;38.00;32.00;;;;;5.74;54.30;99583.44;6297194;27;96197;-65
2022/12/02 02:09:59;;;;;;;;;40.25;35.00;;;;;5.92;54.49;99584.88;6267896;27;97009;-67
2022/12/02 02:13:05;;;;;;;;;40.60;34.60;;;;;5.91;54.42;99566.34;6286184;27;96623;-66
2022/12/02 02:16:09;;;;;;;;;37.25;32.00;;;;;6.02;54.42;99582.84;6286719;27;97295;-65
2022/12/02 02:19:15;;;;;;;;;43.00;34.67;;;;;6.01;53.89;99575.81;6287449;27;96347;-66
2022/12/02 02:22:36;;;;;;;;;36.60;31.00;;;;;6.02;53.88;99582.84;6288181;27;96342;-66
2022/12/02 02:25:45;;;;;;;;;37.33;32.33;;;;;5.99;53.78;99591.22;6280637;27;97805;-66
2022/12/02 02:28:50;;;;;;;;;36.00;32.00;;;;;6.04;54.02;99596.03;6303145;27;96842;-66
2022/12/02 02:31:54;;;;;;;;;37.80;32.00;;;;;6.02;53.66;99587.34;6268355;27;99706;-66
2022/12/02 02:34:58;;;;;;;;;31.33;28.67;;;;;6.01;54.05;99586.50;6286538;27;96560;-66
2022/12/02 02:38:02;;;;;;;;;41.60;35.40;;;;;5.95;54.21;99581.88;6269204;27;98885;-66
2022/12/02 02:41:08;;;;;;;;;35.50;29.50;;;;;6.02;54.21;99582.00;6261351;27;96896;-66
2022/12/02 02:44:11;;;;;;;;;34.25;30.75;;;;;6.03;54.14;99578.31;6274060;27;96637;-67
2022/12/02 02:47:15;;;;;;;;;33.25;28.50;;;;;5.94;54.96;99577.53;6287044;27;97248;-66
2022/12/02 02:50:20;;;;;;;;;33.00;31.00;;;;;6.00;54.58;99573.31;6287719;27;96405;-66
2022/12/02 02:53:26;;;;;;;;;36.20;32.20;;;;;5.95;54.62;99568.50;6284539;27;96375;-66
2022/12/02 02:56:33;;;;;;;;;44.80;37.00;;;;;5.99;54.74;99569.81;6284788;27;96851;-66
2022/12/02 02:59:38;;;;;;;;;51.00;42.00;;;;;6.08;54.58;99575.94;6276988;27;96340;-66
2022/12/02 03:02:44;;;;;;;;;37.40;33.00;;;;;6.04;54.50;99569.28;6260722;27;96250;-66
2022/12/02 03:05:53;;;;;;;;;32.40;29.80;;;;;5.97;54.88;99569.13;6298113;27;96525;-66
2022/12/02 03:08:58;;;;;;;;;33.80;27.20;;;;;5.90;54.87;99565.50;6286264;27;96880;-66
2022/12/02 03:12:03;;;;;;;;;29.80;27.00;;;;;5.88;54.98;99564.84;6303494;27;96385;-65
2022/12/02 03:15:09;;;;;;;;;35.60;32.40;;;;;5.81;55.34;99566.53;6289346;27;96332;-66
2022/12/02 03:18:30;;;;;;;;;34.20;31.40;;;;;5.81;55.71;99563.84;6291385;27;97148;-65
2022/12/02 03:21:33;;;;;;;;;34.00;31.00;;;;;5.86;55.36;99561.50;6289770;27;98379;-66
2022/12/02 03:24:38;;;;;;;;;38.40;33.00;;;;;5.89;55.22;99555.81;6288599;27;96865;-66
2022/12/02 03:27:43;;;;;;;;;37.50;32.00;;;;;5.84;55.11;99560.81;6289586;27;96892;-66
2022/12/02 03:30:47;;;;;;;;;33.00;30.40;;;;;5.90;55.07;99560.16;6270945;27;96644;-66
2022/12/02 03:33:51;;;;;;;;;41.00;35.00;;;;;5.84;54.92;99559.97;6289638;27;97351;-66
2022/12/02 03:36:55;;;;;;;;;38.80;30.80;;;;;5.73;55.52;99550.50;6290597;27;96375;-66
2022/12/02 03:39:58;;;;;;;;;29.25;27.00;;;;;5.70;55.99;99548.19;6288346;27;98361;-65
2022/12/02 03:43:04;;;;;;;;;34.40;30.60;;;;;5.75;55.91;99559.19;6290221;27;96481;-65
2022/12/02 03:46:08;;;;;;;;;34.20;31.80;;;;;5.66;55.44;99547.72;6281061;27;96510;-65
2022/12/02 03:49:12;;;;;;;;;30.80;27.40;;;;;5.73;55.52;99555.00;6279279;27;96273;-65
2022/12/02 03:52:16;;;;;;;;;28.00;25.00;;;;;5.37;55.78;99547.50;6297840;27;96507;-65
2022/12/02 03:55:20;;;;;;;;;29.80;27.80;;;;;5.35;55.79;99546.81;6281443;27;96507;-66
2022/12/02 03:58:35;;;;;;;;;34.20;30.00;;;;;5.31;56.07;99550.84;6298837;27;96301;-65
2022/12/02 04:01:38;;;;;;;;;32.80;30.00;;;;;5.14;56.49;99544.69;6287399;27;96780;-65
2022/12/02 04:04:42;;;;;;;;;30.50;28.50;;;;;5.23;57.48;99545.50;6288058;27;96270;-66
2022/12/02 04:07:45;;;;;;;;;30.20;26.80;;;;;5.33;57.44;99545.31;6287505;27;96652;-66
2022/12/02 04:10:49;;;;;;;;;33.40;28.80;;;;;5.33;57.54;99543.47;6286034;27;96805;-66
2022/12/02 04:13:54;;;;;;;;;32.25;29.50;;;;;5.31;57.61;99534.81;6264091;27;96932;-66
2022/12/02 04:16:57;;;;;;;;;33.20;30.80;;;;;5.43;57.75;99544.09;6287604;27;96240;-65
2022/12/02 04:20:07;;;;;;;;;29.00;27.00;;;;;5.50;57.41;99549.59;6288639;27;96599;-65
2022/12/02 04:23:11;;;;;;;;;32.80;28.00;;;;;5.64;57.10;99540.84;6289670;27;96292;-65
2022/12/02 04:26:14;;;;;;;;;27.80;25.80;;;;;5.59;56.79;99543.22;6288310;27;96707;-65
2022/12/02 04:29:19;;;;;;;;;34.00;30.00;;;;;5.61;56.69;99541.22;6288848;27;96292;-66
2022/12/02 04:32:22;;;;;;;;;34.40;30.00;;;;;5.55;56.10;99542.72;6287585;27;97160;-66
2022/12/02 04:35:25;;;;;;;;;35.40;32.00;;;;;5.66;56.04;99538.84;6288944;27;96883;-65
2022/12/02 04:38:29;;;;;;;;;42.25;35.25;;;;;5.80;55.93;99550.66;6286612;27;98264;-65
2022/12/02 04:41:32;;;;;;;;;30.50;28.25;;;;;5.88;55.67;99543.44;6284256;27;96337;-65
2022/12/02 04:44:37;;;;;;;;;32.40;29.60;;;;;5.93;55.42;99542.91;6288065;27;96733;-65
2022/12/02 04:47:41;;;;;;;;;41.60;34.60;;;;;5.91;55.56;99542.25;6279536;27;96856;-66
2022/12/02 04:50:44;;;;;;;;;31.40;29.00;;;;;5.91;55.49;99543.06;6279864;27;98197;-66
2022/12/02 04:53:47;;;;;;;;;27.50;25.50;;;;;5.92;55.21;99539.38;6287753;27;96653;-66
2022/12/02 04:56:51;;;;;;;;;28.00;25.00;;;;;5.88;55.42;99542.59;6286112;27;96568;-66
2022/12/02 04:59:55;;;;;;;;;29.80;27.00;;;;;5.95;55.26;99544.41;6286524;27;96702;-65
2022/12/02 05:02:59;;;;;;;;;33.00;31.00;;;;;5.84;55.54;99546.59;6284466;27;96409;-66
2022/12/02 05:06:03;;;;;;;;;28.40;25.40;;;;;5.78;55.35;99544.63;6282602;27;96386;-66
2022/12/02 05:09:06;;;;;;;;;27.80;24.20;;;;;5.71;55.56;99544.50;6270663;27;98635;-66
2022/12/02 05:12:09;;;;;;;;;25.00;22.00;;;;;5.69;56.03;99546.50;6281806;27;96680;-66
2022/12/02 05:15:14;;;;;;;;;28.75;26.50;;;;;5.81;56.07;99545.13;6288574;27;96315;-65
2022/12/02 05:18:18;;;;;;;;;23.40;22.20;;;;;5.75;55.76;99551.16;6286569;27;96784;-65
2022/12/02 05:21:21;;;;;;;;;23.20;22.80;;;;;5.80;55.42;99551.47;6284806;27;97135;-66
2022/12/02 05:24:24;;;;;;;;;20.00;17.60;;;;;5.59;56.15;99549.41;6281933;27;96372;-65
2022/12/02 05:27:28;;;;;;;;;23.25;20.25;;;;;5.59;55.89;99548.56;6293347;27;96766;-65
2022/12/02 05:30:39;;;;;;;;;25.00;24.00;;;;;5.48;56.33;99547.09;6295718;27;96880;-65
2022/12/02 05:33:42;;;;;;;;;26.20;22.80;;;;;5.62;56.15;99550.88;6288752;27;97198;-66
2022/12/02 05:36:46;;;;;;;;;24.60;21.60;;;;;5.46;56.60;99554.47;6295056;27;96849;-65
2022/12/02 05:39:50;;;;;;;;;21.00;20.00;;;;;5.46;56.56;99545.63;6286461;27;96674;-65
2022/12/02 05:42:53;;;;;;;;;23.80;23.00;;;;;5.45;56.92;99544.78;6301296;27;97609;-65
2022/12/02 05:45:59;;;;;;;;;23.00;21.00;;;;;5.48;56.54;99551.59;6289994;27;98848;-65
2022/12/02 05:49:05;;;;;;;;;23.60;22.60;;;;;5.40;56.35;99539.13;6282953;27;98394;-65
2022/12/02 05:52:20;;;;;;;;;20.75;18.50;;;;;5.47;56.50;99547.28;6277832;27;97287;-65
2022/12/02 05:55:23;;;;;;;;;24.80;24.00;;;;;5.43;56.47;99543.25;6282759;27;98386;-67
2022/12/02 05:58:27;;;;;;;;;24.00;23.25;;;;;5.40;56.77;99548.97;6293555;27;96361;-65
2022/12/02 06:01:33;;;;;;;;;22.80;20.60;;;;;5.28;57.10;99545.81;6281663;27;96447;-65
2022/12/02 06:04:37;;;;;;;;;24.60;22.60;;;;;5.24;57.26;99548.00;6280752;27;97438;-65
2022/12/02 06:07:40;;;;;;;;;31.20;28.20;;;;;5.09;57.97;99554.22;6280044;27;96811;-65
2022/12/02 06:10:48;;;;;;;;;21.60;20.60;;;;;5.09;58.35;99548.88;6282945;27;96424;-65
2022/12/02 06:13:54;;;;;;;;;31.20;29.00;;;;;5.07;58.11;99549.06;6282500;27;96479;-65
2022/12/02 06:17:02;;;;;;;;;23.80;22.80;;;;;5.20;58.12;99553.88;6284691;27;98122;-66
2022/12/02 06:20:06;;;;;;;;;26.60;22.60;;;;;5.14;58.43;99544.69;6281510;27;96780;-66
2022/12/02 06:23:14;;;;;;;;;25.60;23.00;;;;;5.11;58.10;99560.25;6281627;27;96698;-66
2022/12/02 06:26:20;;;;;;;;;28.00;26.00;;;;;4.92;58.84;99561.47;6279152;27;96069;-66
2022/12/02 06:29:25;;;;;;;;;29.60;28.00;;;;;4.89;58.98;99559.09;6288828;27;96676;-66
2022/12/02 06:32:36;;;;;;;;;28.40;28.00;;;;;4.68;59.35;99558.81;6288839;27;98616;-66
2022/12/02 06:35:40;;;;;;;;;31.50;28.50;;;;;4.99;58.68;99561.59;6285181;27;96645;-66
2022/12/02 06:38:48;;;;;;;;;25.20;24.60;;;;;5.03;58.25;99557.59;6285683;27;100108;-66
2022/12/02 06:41:52;;;;;;;;;30.50;29.50;;;;;5.08;58.37;99566.75;6292031;27;96416;-64
2022/12/02 06:45:08;;;;;;;;;31.25;28.00;;;;;5.09;58.02;99564.91;6289605;27;97570;-65
2022/12/02 06:48:26;;;;;;;;;23.60;21.60;;;;;5.05;57.40;99560.91;6287333;27;96822;-66
2022/12/02 06:51:30;;;;;;;;;27.00;24.00;;;;;5.06;57.80;99562.59;6313476;27;96671;-65
2022/12/02 06:54:34;;;;;;;;;24.40;22.00;;;;;5.10;57.12;99572.78;6301695;27;96337;-64
2022/12/02 06:57:38;;;;;;;;;32.50;30.25;;;;;5.18;57.13;99577.28;6291349;27;96660;-65
2022/12/02 07:00:41;;;;;;;;;28.20;26.80;;;;;5.04;57.79;99565.44;6294345;27;96441;-65
2022/12/02 07:03:49;;;;;;;;;24.00;22.00;;;;;4.98;56.62;99570.63;6293030;27;99048;-65
2022/12/02 07:06:58;;;;;;;;;28.00;26.75;;;;;5.10;56.64;99579.97;6299048;27;96897;-66
2022/12/02 07:10:04;;;;;;;;;24.20;22.60;;;;;4.91;56.43;99586.50;6295314;27;96862;-66
2022/12/02 07:13:16;;;;;;;;;23.50;21.50;;;;;4.91;56.58;99591.00;6309398;27;97509;-65
2022/12/02 07:16:33;;;;;;;;;30.50;27.75;;;;;4.97;56.44;99588.50;6275874;27;96842;-65
2022/12/02 07:19:41;;;;;;;;;25.00;23.20;;;;;4.93;56.27;99583.66;6293603;27;96456;-66
2022/12/02 07:22:47;;;;;;;;;26.75;25.25;;;;;4.83;56.32;99583.84;6290231;27;96346;-65
2022/12/02 07:25:52;;;;;;;;;23.25;20.25;;;;;4.63;55.93;99521.94;6287997;27;96307;-65
2022/12/02 07:29:01;;;;;;;;;22.00;22.00;;;;;5.16;55.94;99585.47;6288814;27;96595;-66
2022/12/02 07:32:18;;;;;;;;;24.40;22.00;;;;;5.16;55.70;99577.44;6298525;27;96393;-65
2022/12/02 07:35:23;;;;;;;;;25.40;24.40;;;;;5.19;55.41;99579.78;6305605;27;96250;-65
2022/12/02 07:38:26;;;;;;;;;24.00;22.50;;;;;5.11;55.74;99576.28;6307978;27;96955;-66
2022/12/02 07:41:50;;;;;;;;;23.00;23.00;;;;;5.07;55.31;99574.97;6288538;27;96665;-65
2022/12/02 07:44:53;;;;;;;;;26.00;23.00;;;;;5.14;55.20;99583.94;6301339;27;96482;-65
2022/12/02 07:47:56;;;;;;;;;23.50;22.50;;;;;5.12;55.50;99570.78;6289368;27;96257;-65
2022/12/02 07:51:01;;;;;;;;;27.25;26.25;;;;;5.12;55.31;99575.28;6288195;27;96765;-65
2022/12/02 07:54:05;;;;;;;;;26.25;23.50;;;;;5.16;54.78;99577.44;6288416;27;96371;-64
2022/12/02 07:57:08;;;;;;;;;20.20;19.00;;;;;5.26;55.46;99577.25;6287258;27;96598;-65
2022/12/02 08:00:13;;;;;;;;;22.60;21.20;;;;;5.22;55.61;99573.25;6287789;27;96343;-64
2022/12/02 08:03:16;;;;;;;;;18.00;18.00;;;;;5.36;55.40;99580.56;6295474;27;96680;-65
2022/12/02 08:06:21;;;;;;;;;27.00;21.25;;;;;5.26;55.31;99593.31;6298456;27;96130;-66
2022/12/02 08:09:24;;;;;;;;;24.00;23.00;;;;;5.36;55.00;99582.41;6289191;27;96286;-65
2022/12/02 08:12:27;;;;;;;;;22.00;21.75;;;;;5.27;55.12;99583.44;6270334;27;96589;-65
2022/12/02 08:15:31;;;;;;;;;24.00;20.40;;;;;5.23;55.50;99589.09;6297711;27;96644;-65
2022/12/02 08:18:34;;;;;;;;;29.40;27.20;;;;;5.30;55.21;99585.75;6307566;27;98685;-65
2022/12/02 08:21:39;;;;;;;;;21.00;20.20;;;;;5.29;55.22;99584.09;6288317;27;97458;-65
2022/12/02 08:24:43;;;;;;;;;29.00;26.80;;;;;5.41;55.15;99585.41;6288747;27;96453;-65
2022/12/02 08:27:46;;;;;;;;;28.00;25.67;;;;;5.40;55.49;99589.91;6269776;27;98711;-66
2022/12/02 08:30:50;;;;;;;;;26.40;25.40;;;;;5.38;55.30;99588.41;6287236;27;96409;-65
2022/12/02 08:33:53;;;;;;;;;25.60;23.00;;;;;5.48;55.46;99608.59;6292156;27;98404;-66
2022/12/02 08:36:58;;;;;;;;;19.75;17.50;;;;;5.48;55.41;99599.75;6287280;27;96265;-65
2022/12/02 08:40:01;;;;;;;;;25.75;22.00;;;;;5.50;55.45;99595.91;6285838;27;97655;-66
2022/12/02 08:43:04;;;;;;;;;27.40;26.40;;;;;5.62;54.94;99605.22;6290526;27;96185;-65
2022/12/02 08:46:08;;;;;;;;;27.40;26.00;;;;;5.53;54.92;99594.72;6289428;27;97906;-65
2022/12/02 08:49:12;;;;;;;;;23.00;20.40;;;;;5.60;54.77;99601.06;6286667;27;96485;-66
2022/12/02 08:52:16;;;;;;;;;26.40;25.40;;;;;5.50;55.10;99598.59;6293322;27;96549;-65
2022/12/02 08:55:20;;;;;;;;;28.00;25.60;;;;;5.41;55.17;99599.63;6288059;27;96470;-65
2022/12/02 08:58:23;;;;;;;;;29.80;26.20;;;;;5.49;54.92;99606.78;6287102;27;96813;-66
2022/12/02 09:01:26;;;;;;;;;25.80;23.00;;;;;5.48;55.09;99603.25;6291772;27;96902;-64
2022/12/02 09:04:30;;;;;;;;;25.50;24.50;;;;;5.46;55.08;99593.75;6291029;27;96222;-65
2022/12/02 09:07:34;;;;;;;;;28.00;26.00;;;;;5.55;54.70;99598.06;6268574;27;97326;-65
2022/12/02 09:10:39;;;;;;;;;21.40;20.00;;;;;5.46;55.20;99596.44;6286414;27;96428;-65
2022/12/02 09:13:43;;;;;;;;;29.40;27.40;;;;;5.48;55.01;99597.06;6286585;27;96112;-66
2022/12/02 09:16:47;;;;;;;;;27.67;26.67;;;;;5.38;55.11;99588.41;6288637;27;97606;-65
2022/12/02 09:19:50;;;;;;;;;28.60;26.60;;;;;5.42;55.05;99581.72;6288627;27;96547;-65
2022/12/02 09:22:55;;;;;;;;;24.40;21.20;;;;;5.21;55.91;99592.97;6282914;27;96781;-66
2022/12/02 09:25:59;;;;;;;;;21.40;21.20;;;;;5.26;55.72;99590.63;6266158;27;96245;-66
2022/12/02 09:29:02;;;;;;;;;28.75;25.75;;;;;5.34;55.53;99590.59;6264741;27;98329;-65
2022/12/02 09:32:05;;;;;;;;;27.00;26.00;;;;;5.40;55.70;99591.75;6304394;27;96321;-64
2022/12/02 09:35:09;;;;;;;;;26.00;25.60;;;;;5.49;58.06;99591.56;6287013;27;96209;-66
2022/12/02 09:38:14;;;;;;;;;23.25;21.25;;;;;5.67;57.89;99583.28;6288261;27;96222;-65
2022/12/02 09:41:18;;;;;;;;;18.00;16.00;;;;;5.75;57.91;99587.78;6288430;27;96267;-65
2022/12/02 09:44:21;;;;;;;;;27.50;26.75;;;;;5.83;56.48;99587.75;6267513;27;97218;-65
2022/12/02 09:47:25;;;;;;;;;25.00;24.20;;;;;5.94;56.16;99590.91;6280828;27;96697;-65
2022/12/02 09:50:28;;;;;;;;;25.50;23.25;;;;;6.01;54.92;99588.38;6276776;27;96166;-65
2022/12/02 09:53:37;;;;;;;;;24.00;22.00;;;;;6.02;54.58;99579.31;6286286;27;96517;-65
2022/12/02 09:56:41;;;;;;;;;26.00;23.00;;;;;5.98;54.31;99576.16;6286010;27;96332;-65
2022/12/02 09:59:44;;;;;;;;;21.75;20.00;;;;;6.05;54.12;99581.66;6284205;27;96594;-64
2022/12/02 10:02:50;;;;;;;;;28.75;26.75;;;;;6.07;53.91;99577.78;6284445;27;96960;-64
2022/12/02 10:05:53;;;;;;;;;23.00;20.60;;;;;5.75;53.62;99579.75;6273128;27;96673;-65
2022/12/02 10:08:58;;;;;;;;;22.00;20.60;;;;;5.86;54.13;99569.53;6292397;27;96993;-65
2022/12/02 10:12:02;;;;;;;;;21.50;20.50;;;;;5.65;54.66;99564.75;6286527;27;96704;-65
2022/12/02 10:15:07;;;;;;;;;27.00;24.00;;;;;5.67;54.65;99570.75;6287958;27;96925;-65
2022/12/02 10:18:15;;;;;;;;;21.00;20.00;;;;;5.72;54.65;99569.41;6286295;27;96646;-65
2022/12/02 10:21:18;;;;;;;;;22.25;21.25;;;;;5.58;54.49;99565.59;6286685;27;96145;-65
2022/12/02 10:24:36;;;;;;;;;24.40;22.00;;;;;5.56;54.97;99560.47;6287393;27;96232;-65
2022/12/02 10:27:40;;;;;;;;;26.60;24.60;;;;;5.53;55.25;99558.09;6271265;27;98325;-65
2022/12/02 10:30:49;;;;;;;;;25.00;23.50;;;;;5.46;55.13;99565.16;6275342;27;96377;-64
2022/12/02 10:33:57;;;;;;;;;23.00;21.50;;;;;5.36;55.50;99563.69;6286334;27;97965;-65
2022/12/02 10:37:17;;;;;;;;;25.25;23.25;;;;;5.29;55.76;99555.50;6289200;27;97114;-65
2022/12/02 10:40:23;;;;;;;;;32.80;28.60;;;;;5.20;56.12;99552.03;6280175;27;96467;-65
2022/12/02 10:43:26;;;;;;;;;21.50;19.75;;;;;5.20;56.39;99559.22;6285380;27;96393;-66
2022/12/02 10:46:30;;;;;;;;;24.25;23.00;;;;;5.16;56.19;99550.72;6285893;27;99873;-66
2022/12/02 10:49:34;;;;;;;;;28.00;27.40;;;;;5.31;56.53;99550.00;6282932;27;96475;-66
2022/12/02 10:52:45;;;;;;;;;27.00;24.20;;;;;5.50;55.85;99549.59;6278989;27;96623;-65
2022/12/02 10:55:50;;;;;;;;;31.00;28.00;;;;;5.60;55.72;99545.72;6288372;27;96669;-64
2022/12/02 10:58:55;;;;;;;;;28.25;27.50;;;;;5.68;55.43;99551.03;6288595;27;96595;-65
2022/12/02 11:02:00;;;;;;;;;30.20;28.80;;;;;5.64;55.11;99540.84;6288196;27;99273;-65
2022/12/02 11:05:14;;;;;;;;;27.60;25.40;;;;;5.71;54.98;99544.50;6290318;27;96740;-65
2022/12/02 11:08:20;;;;;;;;;26.20;25.00;;;;;5.67;54.96;99551.19;6284562;27;96472;-65
2022/12/02 11:11:39;;;;;;;;;31.40;30.00;;;;;5.76;55.14;99550.16;6285564;27;96399;-65
2022/12/02 11:14:55;;;;;;;;;25.20;21.20;;;;;5.62;55.13;99545.53;6284392;27;97106;-65
2022/12/02 11:17:58;;;;;;;;;26.40;25.20;;;;;5.66;55.13;99546.88;6286474;27;96951;-65
2022/12/02 11:21:32;;;;;;;;;31.50;29.00;;;;;5.76;54.98;99542.16;6292182;27;96364;-65
2022/12/02 11:24:37;;;;;;;;;28.75;25.75;;;;;5.83;54.75;99537.75;6284336;27;96495;-66
2022/12/02 11:28:15;;;;;;;;;31.40;29.00;;;;;5.72;54.52;99542.66;6291551;27;98927;-65
2022/12/02 11:31:26;;;;;;;;;32.00;30.00;;;;;5.75;54.67;99547.66;6283412;27;97086;-65
2022/12/02 11:34:43;;;;;;;;;28.80;27.80;;;;;5.79;54.53;99547.13;6286152;27;96295;-66
2022/12/02 11:38:25;;;;;;;;;30.00;25.50;;;;;5.81;54.27;99545.13;6297616;27;96569;-64
2022/12/02 11:41:30;;;;;;;;;25.25;23.25;;;;;5.71;54.32;99544.50;6284199;27;96207;-65
2022/12/02 11:44:35;;;;;;;;;28.40;24.40;;;;;5.68;54.42;99543.00;6276736;27;96390;-64
2022/12/02 11:47:40;;;;;;;;;27.50;27.00;;;;;5.65;54.51;99542.53;6288710;27;96595;-64
2022/12/02 11:50:44;;;;;;;;;28.60;26.40;;;;;5.71;54.36;99533.81;6290566;27;96586;-65
2022/12/02 11:53:50;;;;;;;;;31.50;29.50;;;;;5.55;54.52;99509.81;6287926;27;97702;-65
2022/12/02 11:56:54;;;;;;;;;25.00;24.00;;;;;5.85;54.36;99538.41;6290107;27;96299;-66
2022/12/02 11:59:59;;;;;;;;;26.25;25.25;;;;;5.83;54.33;99528.88;6288690;27;96512;-65
2022/12/02 12:03:13;;;;;;;;;30.25;27.00;;;;;5.90;53.98;99535.25;6291902;27;96286;-65
2022/12/02 12:06:19;;;;;;;;;26.50;22.50;;;;;5.97;53.59;99533.50;6290151;27;96275;-66
2022/12/02 12:09:22;;;;;;;;;28.80;25.80;;;;;5.84;53.52;99528.72;6291711;27;96616;-65
2022/12/02 12:12:26;;;;;;;;;30.75;28.50;;;;;5.91;53.83;99528.88;6291556;27;97985;-65
2022/12/02 12:15:55;;;;;;;;;32.60;30.60;;;;;5.87;53.87;99514.16;6284569;27;98963;-66
2022/12/02 12:18:59;;;;;;;;;30.80;27.40;;;;;5.93;53.53;99521.50;6298191;27;96296;-65
2022/12/02 12:22:24;;;;;;;;;25.00;23.20;;;;;5.79;53.51;99527.56;6290700;27;96394;-66
2022/12/02 12:25:32;;;;;;;;;30.40;27.40;;;;;5.82;53.77;99519.19;6292675;27;96372;-65
2022/12/02 12:28:37;;;;;;;;;24.20;22.20;;;;;5.59;53.69;99509.28;6287625;27;96326;-65
2022/12/02 12:31:43;;;;;;;;;26.60;25.60;;;;;5.73;53.65;99525.59;6288244;27;96389;-65
2022/12/02 12:34:47;;;;;;;;;31.40;30.00;;;;;5.64;54.04;99528.31;6269078;27;96948;-68
2022/12/02 12:37:50;;;;;;;;;27.00;23.00;;;;;5.65;53.88;99526.47;6287579;27;96789;-66
2022/12/02 12:40:56;;;;;;;;;30.60;28.60;;;;;5.67;54.07;99527.13;6281830;27;98299;-66
2022/12/02 12:43:59;;;;;;;;;28.40;25.00;;;;;5.59;53.88;99521.81;6303536;27;96746;-66
2022/12/02 12:47:05;;;;;;;;;29.00;27.40;;;;;5.52;53.99;99510.97;6287059;27;96588;-67
2022/12/02 12:50:09;;;;;;;;;31.75;30.00;;;;;5.71;53.78;99525.78;6281207;27;96809;-67
2022/12/02 12:53:13;;;;;;;;;35.00;31.60;;;;;5.54;54.12;99527.69;6281858;27;96636;-67
2022/12/02 12:56:17;;;;;;;;;31.80;28.80;;;;;5.57;53.85;99523.84;6289597;27;96967;-66
2022/12/02 12:59:21;;;;;;;;;27.80;25.20;;;;;5.59;54.09;99524.50;6285250;27;96468;-66
2022/12/02 13:02:25;;;;;;;;;27.00;25.00;;;;;5.42;53.88;99521.06;6288997;27;96690;-66
2022/12/02 13:05:29;;;;;;;;;29.00;28.20;;;;;5.56;53.78;99524.84;6263612;27;98574;-65
2022/12/02 13:08:32;;;;;;;;;32.00;30.00;;;;;5.64;54.33;99525.63;6290122;27;98507;-65
2022/12/02 13:11:35;;;;;;;;;29.25;27.00;;;;;5.66;53.89;99522.78;6298828;27;96408;-65
2022/12/02 13:14:39;;;;;;;;;29.00;27.00;;;;;5.57;53.76;99526.53;6285233;27;97307;-65
2022/12/02 13:17:44;;;;;;;;;28.40;26.60;;;;;5.64;54.18;99517.59;6286420;27;98676;-67
2022/12/02 13:20:51;;;;;;;;;32.67;28.67;;;;;5.62;53.90;99524.13;6278395;27;96517;-66
2022/12/02 13:23:55;;;;;;;;;26.75;26.00;;;;;5.44;54.32;99520.88;6267624;27;96658;-66
2022/12/02 13:26:58;;;;;;;;;28.00;26.00;;;;;5.46;55.42;99522.38;6285889;27;96902;-65
2022/12/02 13:30:01;;;;;;;;;31.75;30.00;;;;;5.38;54.62;99517.03;6306174;27;97639;-66
2022/12/02 13:33:06;;;;;;;;;35.20;31.60;;;;;5.44;54.48;99520.88;6285344;27;96608;-64
2022/12/02 13:36:10;;;;;;;;;24.75;21.75;;;;;5.51;54.37;99519.19;6286491;27;96608;-65
2022/12/02 13:39:13;;;;;;;;;30.50;27.75;;;;;5.59;54.21;99524.50;6293743;27;98332;-65
2022/12/02 13:42:16;;;;;;;;;30.20;27.60;;;;;5.67;54.11;99519.09;6290428;27;96382;-66
2022/12/02 13:45:20;;;;;;;;;26.00;23.50;;;;;5.62;53.96;99526.81;6260438;27;97044;-65
2022/12/02 13:48:25;;;;;;;;;27.00;25.00;;;;;5.26;54.82;99514.94;6287194;27;96163;-65
2022/12/02 13:51:29;;;;;;;;;19.60;18.80;;;;;5.21;54.94;99524.31;6289458;27;96412;-64
2022/12/02 13:54:33;;;;;;;;;27.25;26.00;;;;;5.19;55.21;99528.16;6295569;27;98528;-64
2022/12/02 13:57:36;;;;;;;;;28.00;25.00;;;;;5.28;55.11;99523.63;6294674;27;96814;-65
2022/12/02 14:00:39;;;;;;;;;28.00;26.25;;;;;5.27;54.93;99533.47;6298670;27;97020;-66
2022/12/02 14:03:44;;;;;;;;;33.50;31.00;;;;;5.07;55.47;99527.69;6285696;27;99720;-65
2022/12/02 14:06:47;;;;;;;;;29.60;28.00;;;;;5.08;55.46;99534.69;6292340;27;98454;-65
2022/12/02 14:09:51;;;;;;;;;29.20;26.20;;;;;5.05;55.66;99529.69;6290633;27;99568;-65
2022/12/02 14:12:55;;;;;;;;;31.40;27.80;;;;;5.12;55.74;99538.72;6290202;27;98989;-64
2022/12/02 14:15:58;;;;;;;;;26.50;25.50;;;;;5.10;55.51;99534.53;6286772;27;98336;-63
2022/12/02 14:19:06;;;;;;;;;31.80;28.40;;;;;5.01;55.62;99533.72;6269733;27;96583;-62
2022/12/02 14:22:09;;;;;;;;;34.00;30.00;;;;;5.02;55.56;99530.03;6284314;27;97344;-75
2022/12/02 14:25:13;;;;;;;;;30.00;27.00;;;;;5.11;55.56;99533.53;6296156;27;96447;-63